Time;durP1;ratioP1;P1;durP2;ratioP2;P2;SDS_P1;SDS_P2;PMS_P1;PMS_P2;Temp;Humidity;BMP_temperature;BMP_pressure;BME280_temperature;BME280_humidity;BME280_pressure;Samples;Min_cycle;Max_cycle;Signal;HPM_P1;HPM_P2
2023/03/09 00:00:29;;;;;;;23.27;13.13;;;4.70;99.90;;;;;;5033105;28;20338;-67
2023/03/09 00:02:55;;;;;;;17.40;11.53;;;4.70;99.90;;;;;;5033833;28;20542;-67
2023/03/09 00:05:21;;;;;;;12.83;11.10;;;4.60;99.90;;;;;;5033394;28;20668;-67
2023/03/09 00:07:47;;;;;;;17.47;12.17;;;4.50;99.90;;;;;;5033480;28;20587;-67
2023/03/09 00:10:14;;;;;;;16.60;10.83;;;4.50;99.90;;;;;;5032939;28;20564;-67
2023/03/09 00:12:41;;;;;;;15.50;11.97;;;4.40;99.90;;;;;;5033399;28;20195;-67
2023/03/09 00:15:07;;;;;;;17.53;11.90;;;4.40;99.90;;;;;;5033267;28;20190;-67
2023/03/09 00:17:33;;;;;;;15.50;11.57;;;4.40;99.90;;;;;;5033194;28;20613;-67
2023/03/09 00:20:14;;;;;;;18.37;10.83;;;4.30;99.90;;;;;;5032686;28;20203;-67
2023/03/09 00:22:40;;;;;;;12.90;11.20;;;4.30;99.90;;;;;;5033131;28;20253;-68
2023/03/09 00:25:06;;;;;;;12.90;11.60;;;4.20;99.90;;;;;;5033441;28;20214;-68
2023/03/09 00:27:32;;;;;;;14.77;13.20;;;4.20;99.90;;;;;;5032911;28;20171;-68
2023/03/09 00:29:58;;;;;;;14.30;11.33;;;4.10;99.90;;;;;;5032805;28;20856;-68
2023/03/09 00:32:23;;;;;;;13.63;12.03;;;4.10;99.90;;;;;;5032806;28;20175;-67
2023/03/09 00:34:49;;;;;;;16.33;12.17;;;4.10;99.90;;;;;;5033059;28;20199;-67
2023/03/09 00:37:14;;;;;;;17.77;13.47;;;4.10;99.90;;;;;;5032901;28;20168;-67
2023/03/09 00:39:40;;;;;;;15.47;11.77;;;4.10;99.90;;;;;;5032507;28;20183;-67
2023/03/09 00:42:06;;;;;;;15.50;11.63;;;4.10;99.90;;;;;;5032956;28;20243;-68
2023/03/09 00:44:31;;;;;;;18.20;12.37;;;4.10;99.90;;;;;;5031958;28;20179;-67
2023/03/09 00:46:57;;;;;;;14.60;13.10;;;4.10;99.90;;;;;;5032873;28;20172;-67
2023/03/09 00:49:22;;;;;;;12.87;11.50;;;4.10;99.90;;;;;;5032781;28;20207;-67
2023/03/09 00:51:48;;;;;;;14.60;12.90;;;4.20;99.90;;;;;;5032588;28;20175;-68
2023/03/09 00:54:14;;;;;;;16.00;13.07;;;4.10;99.90;;;;;;5032518;28;20687;-68
2023/03/09 00:56:41;;;;;;;19.13;13.80;;;4.20;99.90;;;;;;5032616;28;20175;-68
2023/03/09 00:59:07;;;;;;;14.80;12.20;;;4.20;99.90;;;;;;5032278;28;20202;-67
2023/03/09 01:01:32;;;;;;;14.30;11.83;;;4.20;99.90;;;;;;5032241;28;20176;-67
2023/03/09 01:03:58;;;;;;;12.70;11.17;;;4.30;99.90;;;;;;5032404;28;20217;-67
2023/03/09 01:06:24;;;;;;;14.10;11.17;;;4.30;99.90;;;;;;5032281;28;20199;-68
2023/03/09 01:08:51;;;;;;;15.53;13.30;;;4.30;99.90;;;;;;5032479;28;20199;-67
2023/03/09 01:11:17;;;;;;;13.73;12.30;;;4.30;99.90;;;;;;5032299;28;20245;-67
2023/03/09 01:13:44;;;;;;;12.40;11.20;;;4.20;99.90;;;;;;5032658;28;20175;-68
2023/03/09 01:16:09;;;;;;;17.07;14.17;;;4.20;99.90;;;;;;5032495;28;20672;-67
2023/03/09 01:18:35;;;;;;;16.57;12.37;;;4.20;99.90;;;;;;5031683;28;20199;-68
2023/03/09 01:21:01;;;;;;;16.23;11.23;;;4.20;99.90;;;;;;5032003;28;20197;-68
2023/03/09 01:23:27;;;;;;;14.33;12.60;;;4.20;99.90;;;;;;5032041;28;20250;-67
2023/03/09 01:25:53;;;;;;;12.47;11.17;;;4.20;99.90;;;;;;5032091;28;20195;-68
2023/03/09 01:28:19;;;;;;;15.10;12.50;;;4.30;99.90;;;;;;5031835;28;20179;-67
2023/03/09 01:30:44;;;;;;;10.30;9.37;;;4.30;99.90;;;;;;5031694;28;20235;-67
2023/03/09 01:33:10;;;;;;;13.17;11.77;;;4.20;99.90;;;;;;5031802;28;20207;-67
2023/03/09 01:35:38;;;;;;;15.43;12.60;;;4.20;99.90;;;;;;5031583;28;20566;-67
2023/03/09 01:38:04;;;;;;;14.40;11.30;;;4.20;99.90;;;;;;5031667;28;20665;-68
2023/03/09 01:40:30;;;;;;;15.23;12.63;;;4.10;99.90;;;;;;5031389;28;20266;-67
2023/03/09 01:42:56;;;;;;;17.33;13.90;;;4.10;99.90;;;;;;5031915;28;20645;-67
2023/03/09 01:45:21;;;;;;;16.07;14.30;;;4.00;99.90;;;;;;5031793;28;20237;-68
2023/03/09 01:47:47;;;;;;;21.17;15.70;;;4.00;99.90;;;;;;5031209;28;20574;-67
2023/03/09 01:50:21;;;;;;;15.80;13.67;;;3.90;99.90;;;;;;5031771;28;20274;-67
2023/03/09 01:52:49;;;;;;;15.23;13.63;;;3.90;99.90;;;;;;5031666;28;20207;-67
2023/03/09 01:55:20;;;;;;;14.57;13.07;;;3.90;99.90;;;;;;5030887;28;20171;-67
2023/03/09 01:58:01;;;;;;;17.20;15.47;;;3.90;99.90;;;;;;5031350;28;20230;-67
2023/03/09 02:00:26;;;;;;;21.67;15.10;;;3.90;99.90;;;;;;5031288;28;20199;-67
2023/03/09 02:03:00;;;;;;;17.73;14.60;;;3.80;99.90;;;;;;5031756;28;20629;-67
2023/03/09 02:05:52;;;;;;;16.20;14.50;;;3.70;99.90;;;;;;5031192;28;20229;-67
2023/03/09 02:08:20;;;;;;;16.77;14.77;;;3.70;99.90;;;;;;5019853;28;20720;-67
2023/03/09 02:10:54;;;;;;;17.30;15.67;;;3.70;99.90;;;;;;5031595;28;20214;-66
2023/03/09 02:13:24;;;;;;;18.97;16.80;;;3.60;99.90;;;;;;5031627;28;20700;-66
2023/03/09 02:15:50;;;;;;;19.10;17.20;;;3.60;99.90;;;;;;5029729;28;20187;-66
2023/03/09 02:18:15;;;;;;;20.20;16.73;;;3.50;99.90;;;;;;5031178;28;20271;-66
2023/03/09 02:21:18;;;;;;;22.63;17.90;;;3.40;99.90;;;;;;5030832;28;20186;-66
2023/03/09 02:24:21;;;;;;;16.23;14.53;;;3.40;99.90;;;;;;5031197;28;20175;-66
2023/03/09 02:26:53;;;;;;;22.07;16.70;;;3.30;99.90;;;;;;5030999;28;20225;-66
2023/03/09 02:29:18;;;;;;;16.30;12.73;;;3.30;99.90;;;;;;5031054;28;20191;-66
2023/03/09 02:31:44;;;;;;;20.13;15.43;;;3.20;99.90;;;;;;5030808;28;20267;-66
2023/03/09 02:34:10;;;;;;;22.80;15.47;;;3.20;99.90;;;;;;5031459;28;20183;-66
2023/03/09 02:36:36;;;;;;;29.73;16.07;;;3.20;99.90;;;;;;5031020;28;20214;-66
2023/03/09 02:39:20;;;;;;;14.83;12.40;;;3.20;99.90;;;;;;5031202;28;20208;-66
2023/03/09 02:41:46;;;;;;;19.57;15.00;;;3.20;99.90;;;;;;5030560;28;20179;-66
2023/03/09 02:44:13;;;;;;;17.17;13.67;;;3.10;99.90;;;;;;5031249;28;20585;-66
2023/03/09 02:46:39;;;;;;;19.83;14.53;;;3.10;99.90;;;;;;5030824;28;20210;-66
2023/03/09 02:49:04;;;;;;;14.30;12.80;;;3.10;99.90;;;;;;5031024;28;20560;-66
2023/03/09 02:51:30;;;;;;;21.90;11.67;;;3.20;99.90;;;;;;5030662;28;20180;-66
2023/03/09 02:53:55;;;;;;;17.60;13.70;;;3.10;99.90;;;;;;5030672;28;20245;-66
2023/03/09 02:56:21;;;;;;;18.70;13.07;;;3.10;99.90;;;;;;5030799;28;20222;-66
2023/03/09 02:58:47;;;;;;;12.47;11.23;;;3.10;99.90;;;;;;5030921;28;20208;-66
2023/03/09 03:01:12;;;;;;;14.00;12.03;;;3.10;99.90;;;;;;5031070;28;20179;-67
2023/03/09 03:03:38;;;;;;;22.13;12.77;;;3.10;99.90;;;;;;5030697;28;20218;-66
2023/03/09 03:06:03;;;;;;;17.60;12.30;;;3.10;99.90;;;;;;5031063;28;20210;-66
2023/03/09 03:08:30;;;;;;;17.10;14.40;;;3.00;99.90;;;;;;5033941;28;20567;-66
2023/03/09 03:10:56;;;;;;;15.13;12.10;;;3.00;99.90;;;;;;5034472;28;20179;-65
2023/03/09 03:13:21;;;;;;;19.77;13.50;;;3.00;99.90;;;;;;5032905;28;20190;-65
2023/03/09 03:15:47;;;;;;;25.03;12.97;;;3.00;99.90;;;;;;5034669;28;20209;-65
2023/03/09 03:18:12;;;;;;;21.43;14.37;;;2.90;99.90;;;;;;5034269;28;20180;-65
2023/03/09 03:20:38;;;;;;;17.00;12.73;;;2.90;99.90;;;;;;5034114;28;20188;-66
2023/03/09 03:23:03;;;;;;;22.87;15.43;;;2.90;99.90;;;;;;5034146;28;20218;-65
2023/03/09 03:25:29;;;;;;;12.37;10.90;;;2.90;99.90;;;;;;5034113;28;20660;-65
2023/03/09 03:27:54;;;;;;;21.10;13.60;;;2.90;99.90;;;;;;5033916;28;20184;-65
2023/03/09 03:30:20;;;;;;;18.93;12.87;;;2.80;99.90;;;;;;5033884;28;20642;-66
2023/03/09 03:32:51;;;;;;;22.73;13.10;;;2.90;99.90;;;;;;5033338;28;20186;-66
2023/03/09 03:35:17;;;;;;;21.90;14.57;;;2.90;99.90;;;;;;5034059;28;20210;-66
2023/03/09 03:37:42;;;;;;;24.53;13.57;;;2.90;99.90;;;;;;5033535;28;20211;-66
2023/03/09 03:40:10;;;;;;;19.63;11.43;;;2.90;99.90;;;;;;5033589;28;20199;-66
2023/03/09 03:42:35;;;;;;;33.73;15.23;;;2.90;99.90;;;;;;5033779;28;20549;-66
2023/03/09 03:45:01;;;;;;;19.73;14.07;;;2.90;99.90;;;;;;5032477;28;20202;-66
2023/03/09 03:47:26;;;;;;;24.63;14.77;;;3.00;99.90;;;;;;5034149;28;20176;-66
2023/03/09 03:49:52;;;;;;;28.57;14.70;;;3.10;99.90;;;;;;5031986;28;20227;-66
2023/03/09 03:52:18;;;;;;;22.53;13.47;;;3.10;99.90;;;;;;5033677;28;20187;-64
2023/03/09 03:54:43;;;;;;;35.87;15.17;;;3.00;99.90;;;;;;5033596;28;20562;-67
2023/03/09 03:57:10;;;;;;;21.67;14.10;;;3.10;99.90;;;;;;5033846;28;20199;-65
2023/03/09 03:59:35;;;;;;;30.33;14.17;;;3.10;99.90;;;;;;5032734;28;20198;-65
2023/03/09 04:02:01;;;;;;;26.47;15.40;;;3.10;99.90;;;;;;5033701;28;20168;-64
2023/03/09 04:04:26;;;;;;;27.70;15.00;;;3.20;99.90;;;;;;5033332;28;20189;-65
2023/03/09 04:06:52;;;;;;;37.03;15.17;;;3.20;99.90;;;;;;5033583;28;20261;-65
2023/03/09 04:09:17;;;;;;;20.67;13.20;;;3.10;99.90;;;;;;5032930;28;20250;-65
2023/03/09 04:11:45;;;;;;;27.23;13.20;;;3.10;99.90;;;;;;5033300;28;20175;-65
2023/03/09 04:14:11;;;;;;;30.40;15.23;;;3.10;99.90;;;;;;5033529;28;20172;-65
2023/03/09 04:16:38;;;;;;;25.13;14.97;;;3.10;99.90;;;;;;5033382;28;20172;-65
2023/03/09 04:19:04;;;;;;;36.17;15.10;;;3.10;99.90;;;;;;5032072;28;20195;-65
2023/03/09 04:21:29;;;;;;;24.10;13.97;;;3.00;99.90;;;;;;5032784;28;20679;-65
2023/03/09 04:23:55;;;;;;;26.90;15.87;;;3.00;99.90;;;;;;5033414;28;20633;-65
2023/03/09 04:26:20;;;;;;;25.53;14.53;;;3.00;99.90;;;;;;5033153;28;20202;-65
2023/03/09 04:28:46;;;;;;;24.70;13.70;;;2.90;99.90;;;;;;5032908;28;20346;-65
2023/03/09 04:31:12;;;;;;;15.80;14.23;;;2.90;99.90;;;;;;5032868;28;20546;-65
2023/03/09 04:33:42;;;;;;;26.90;14.33;;;2.90;99.90;;;;;;5032964;28;20219;-65
2023/03/09 04:36:11;;;;;;;30.40;15.37;;;2.90;99.90;;;;;;5031448;28;20276;-65
2023/03/09 04:38:37;;;;;;;28.00;15.10;;;2.90;99.90;;;;;;5032591;28;20733;-66
2023/03/09 04:41:03;;;;;;;16.20;13.50;;;2.90;99.90;;;;;;5032639;28;20199;-66
2023/03/09 04:43:29;;;;;;;27.13;13.07;;;2.90;99.90;;;;;;5032761;28;20179;-66
2023/03/09 04:45:54;;;;;;;41.77;15.73;;;2.90;99.90;;;;;;5032206;28;20275;-66
2023/03/09 04:48:20;;;;;;;25.87;12.27;;;2.90;99.90;;;;;;5032854;28;20171;-65
2023/03/09 04:50:45;;;;;;;22.83;15.03;;;3.00;99.90;;;;;;5032173;28;20184;-66
2023/03/09 04:53:11;;;;;;;22.27;14.10;;;3.00;99.90;;;;;;5031689;28;20175;-66
2023/03/09 04:55:37;;;;;;;17.20;13.63;;;3.00;99.90;;;;;;5032365;28;20630;-66
2023/03/09 04:58:04;;;;;;;36.83;13.57;;;3.00;99.90;;;;;;5033116;28;20190;-67
2023/03/09 05:00:30;;;;;;;24.13;12.60;;;3.10;99.90;;;;;;5032097;28;20214;-65
2023/03/09 05:02:56;;;;;;;25.73;15.07;;;3.10;99.90;;;;;;5032822;28;20173;-65
2023/03/09 05:05:21;;;;;;;21.03;13.03;;;3.10;99.90;;;;;;5032707;28;20653;-65
2023/03/09 05:07:47;;;;;;;19.90;12.87;;;3.10;99.90;;;;;;5031997;28;20606;-65
2023/03/09 05:10:12;;;;;;;18.70;12.97;;;3.10;99.90;;;;;;5031966;28;20211;-65
2023/03/09 05:12:38;;;;;;;21.07;14.70;;;3.10;99.90;;;;;;5031958;28;20237;-65
2023/03/09 05:15:04;;;;;;;25.00;13.83;;;3.20;99.90;;;;;;5032069;28;20206;-66
2023/03/09 05:17:31;;;;;;;32.90;14.77;;;3.20;99.90;;;;;;5031893;28;20188;-66
2023/03/09 05:19:56;;;;;;;34.03;16.37;;;3.20;99.90;;;;;;5036268;28;20195;-66
2023/03/09 05:22:22;;;;;;;19.77;14.23;;;3.20;99.90;;;;;;5036788;28;20215;-67
2023/03/09 05:24:47;;;;;;;20.10;12.37;;;3.20;99.90;;;;;;5036569;28;20249;-67
2023/03/09 05:27:13;;;;;;;27.30;15.03;;;3.30;99.90;;;;;;5032804;28;20179;-66
2023/03/09 05:29:40;;;;;;;24.53;14.90;;;3.40;99.90;;;;;;5032362;28;20191;-66
2023/03/09 05:32:06;;;;;;;20.70;14.07;;;3.40;99.90;;;;;;5032484;28;20171;-66
2023/03/09 05:34:32;;;;;;;31.83;14.07;;;3.40;99.90;;;;;;5031848;28;20172;-68
2023/03/09 05:36:57;;;;;;;27.80;20.10;;;3.40;99.90;;;;;;5032090;28;20576;-68
2023/03/09 05:39:23;;;;;;;28.10;14.67;;;3.30;99.90;;;;;;5031733;28;20274;-68
2023/03/09 05:41:49;;;;;;;22.47;14.37;;;3.30;99.90;;;;;;5030949;28;20532;-67
2023/03/09 05:44:14;;;;;;;24.13;15.57;;;3.40;99.90;;;;;;5031618;28;20172;-67
2023/03/09 05:46:40;;;;;;;19.63;15.03;;;3.30;99.90;;;;;;5031741;28;20680;-67
2023/03/09 05:49:06;;;;;;;19.80;15.00;;;3.40;99.90;;;;;;5031918;28;20297;-67
2023/03/09 05:51:32;;;;;;;25.50;14.13;;;3.40;99.90;;;;;;5031491;28;20210;-68
2023/03/09 05:53:57;;;;;;;26.67;14.47;;;3.40;99.90;;;;;;5031660;28;20210;-67
2023/03/09 05:56:23;;;;;;;20.00;14.20;;;3.40;99.90;;;;;;5031518;28;20175;-67
2023/03/09 05:58:50;;;;;;;25.97;15.23;;;3.30;99.90;;;;;;5030332;28;20203;-67
2023/03/09 06:01:22;;;;;;;14.73;12.70;;;3.20;99.90;;;;;;5030120;28;20190;-67
2023/03/09 06:03:48;;;;;;;18.37;13.00;;;3.10;99.90;;;;;;5031201;28;20190;-67
2023/03/09 06:06:14;;;;;;;19.50;14.73;;;3.10;99.90;;;;;;5031946;28;20195;-67
2023/03/09 06:08:40;;;;;;;17.90;11.43;;;3.10;99.90;;;;;;5031719;28;20195;-67
2023/03/09 06:11:06;;;;;;;18.80;13.97;;;3.10;99.90;;;;;;5031910;28;20246;-67
2023/03/09 06:13:31;;;;;;;26.73;15.47;;;3.10;99.90;;;;;;5031982;28;20255;-67
2023/03/09 06:15:57;;;;;;;23.63;13.87;;;3.10;99.90;;;;;;5031654;28;20180;-67
2023/03/09 06:18:22;;;;;;;23.83;15.90;;;3.10;99.90;;;;;;5031839;28;20540;-67
2023/03/09 06:20:49;;;;;;;22.87;15.63;;;3.10;99.90;;;;;;5031572;28;20179;-67
2023/03/09 06:23:14;;;;;;;16.33;13.67;;;3.10;99.90;;;;;;5031951;28;20258;-67
2023/03/09 06:25:40;;;;;;;16.83;12.87;;;3.10;99.90;;;;;;5031362;28;20291;-67
2023/03/09 06:28:06;;;;;;;20.27;15.27;;;3.10;99.90;;;;;;5031530;28;20254;-67
2023/03/09 06:30:32;;;;;;;20.33;13.67;;;3.00;99.90;;;;;;5030915;28;20195;-68
2023/03/09 06:32:58;;;;;;;23.47;13.97;;;3.10;99.90;;;;;;5031308;28;20163;-67
2023/03/09 06:35:24;;;;;;;23.83;14.23;;;3.10;99.90;;;;;;5031273;28;20241;-67
2023/03/09 06:37:50;;;;;;;23.93;13.90;;;3.00;99.90;;;;;;5031075;28;20202;-67
2023/03/09 06:40:17;;;;;;;19.20;13.77;;;3.00;99.90;;;;;;5031141;28;20195;-68
2023/03/09 06:42:43;;;;;;;23.53;12.50;;;3.10;99.90;;;;;;5033796;28;20175;-67
2023/03/09 06:45:09;;;;;;;19.07;13.33;;;3.10;99.90;;;;;;5035217;28;20609;-68
2023/03/09 06:47:35;;;;;;;20.37;13.57;;;3.10;99.90;;;;;;5035266;28;20167;-67
2023/03/09 06:50:00;;;;;;;20.47;12.40;;;3.10;99.90;;;;;;5034136;28;20187;-67
2023/03/09 06:52:26;;;;;;;13.93;12.47;;;3.10;99.90;;;;;;5035056;28;20668;-67
2023/03/09 06:54:52;;;;;;;17.73;11.27;;;3.10;99.90;;;;;;5034987;28;20175;-67
2023/03/09 06:57:18;;;;;;;17.07;12.00;;;3.10;99.90;;;;;;5035068;28;20252;-68
2023/03/09 06:59:44;;;;;;;14.93;11.13;;;3.10;99.90;;;;;;5034402;28;20203;-67
2023/03/09 07:02:12;;;;;;;18.27;13.43;;;3.20;99.90;;;;;;5034937;28;20171;-67
2023/03/09 07:04:38;;;;;;;17.87;13.43;;;3.30;99.90;;;;;;5035355;28;20210;-68
2023/03/09 07:07:03;;;;;;;19.13;14.03;;;3.30;99.90;;;;;;5034694;28;20207;-67
2023/03/09 07:09:31;;;;;;;17.37;14.27;;;3.40;99.90;;;;;;5034652;28;20297;-67
2023/03/09 07:11:58;;;;;;;13.63;12.10;;;3.50;99.90;;;;;;5033527;28;20728;-67
2023/03/09 07:14:24;;;;;;;16.93;14.00;;;3.50;99.90;;;;;;5034721;28;20164;-67
2023/03/09 07:16:54;;;;;;;18.00;13.70;;;3.50;99.90;;;;;;5034695;28;20175;-67
2023/03/09 07:19:20;;;;;;;22.03;13.47;;;3.50;99.90;;;;;;5014824;28;20192;-67
2023/03/09 07:21:46;;;;;;;18.87;13.73;;;3.50;99.90;;;;;;5014500;28;20207;-67
2023/03/09 07:24:11;;;;;;;16.73;13.70;;;3.60;99.90;;;;;;5033809;28;20179;-67
2023/03/09 07:26:37;;;;;;;19.33;14.17;;;3.80;99.90;;;;;;5034256;28;20249;-67
2023/03/09 07:29:03;;;;;;;21.97;14.33;;;3.80;99.90;;;;;;5034303;28;20206;-66
2023/03/09 07:31:31;;;;;;;15.47;12.67;;;3.90;99.90;;;;;;5033920;28;20179;-67
2023/03/09 07:33:58;;;;;;;16.20;13.00;;;4.00;99.90;;;;;;5034304;28;20160;-67
2023/03/09 07:36:24;;;;;;;21.83;13.23;;;4.00;99.90;;;;;;5033977;28;20229;-67
2023/03/09 07:38:50;;;;;;;17.47;13.10;;;4.10;99.90;;;;;;5034007;28;20206;-67
2023/03/09 07:41:17;;;;;;;20.30;11.97;;;4.10;99.90;;;;;;5033961;28;20182;-67
2023/03/09 07:43:46;;;;;;;20.07;12.37;;;4.20;99.90;;;;;;5032705;28;20215;-67
2023/03/09 07:46:15;;;;;;;15.50;11.37;;;4.40;99.90;;;;;;5033678;28;20286;-67
2023/03/09 07:48:41;;;;;;;17.37;11.67;;;4.60;99.90;;;;;;5033629;28;20622;-67
2023/03/09 07:51:08;;;;;;;19.37;11.90;;;4.60;99.90;;;;;;5033859;28;20168;-67
2023/03/09 07:53:35;;;;;;;15.33;10.47;;;4.60;99.90;;;;;;5033727;28;20594;-67
2023/03/09 07:56:03;;;;;;;19.47;12.00;;;4.50;99.90;;;;;;5034116;28;20225;-66
2023/03/09 07:58:30;;;;;;;14.93;11.57;;;4.60;99.90;;;;;;5033530;28;20250;-67
2023/03/09 08:00:56;;;;;;;17.70;10.70;;;4.60;99.90;;;;;;5033726;28;20187;-67
2023/03/09 08:03:22;;;;;;;18.13;11.80;;;4.80;99.90;;;;;;5033608;28;20225;-67
2023/03/09 08:05:47;;;;;;;15.63;12.13;;;4.80;99.90;;;;;;5033581;28;20203;-66
2023/03/09 08:08:13;;;;;;;17.33;12.57;;;4.90;99.90;;;;;;5032767;28;20175;-67
2023/03/09 08:10:40;;;;;;;19.70;12.13;;;4.90;99.90;;;;;;5055875;23;20227;-65
2023/03/09 08:13:05;;;;;;;16.50;11.17;;;4.90;99.90;;;;;;5033548;28;20195;-66
2023/03/09 08:15:31;;;;;;;15.60;11.33;;;5.00;99.90;;;;;;5033026;28;20213;-65
2023/03/09 08:17:56;;;;;;;16.20;11.23;;;5.10;99.90;;;;;;5033343;28;20167;-65
2023/03/09 08:20:22;;;;;;;18.53;10.83;;;5.30;99.90;;;;;;5032656;28;20712;-65
2023/03/09 08:22:48;;;;;;;14.47;10.63;;;5.30;99.90;;;;;;5033151;28;20184;-65
2023/03/09 08:25:13;;;;;;;12.50;11.07;;;5.20;99.90;;;;;;5032905;28;20206;-65
2023/03/09 08:27:41;;;;;;;12.10;10.87;;;5.20;99.90;;;;;;5033180;28;20171;-65
2023/03/09 08:30:07;;;;;;;13.97;11.20;;;5.20;99.90;;;;;;5032409;28;20192;-65
2023/03/09 08:32:34;;;;;;;13.70;11.33;;;5.20;99.90;;;;;;5032753;28;20226;-65
2023/03/09 08:34:59;;;;;;;14.33;10.77;;;5.20;99.90;;;;;;5032660;28;20264;-65
2023/03/09 08:37:25;;;;;;;16.03;10.80;;;5.20;99.90;;;;;;5032787;28;20258;-66
2023/03/09 08:39:51;;;;;;;15.93;11.20;;;5.20;99.90;;;;;;5032284;28;20234;-66
2023/03/09 08:42:18;;;;;;;11.70;9.40;;;5.20;99.90;;;;;;5031094;28;20616;-65
2023/03/09 08:44:43;;;;;;;12.10;9.23;;;5.20;99.90;;;;;;5032392;28;20171;-65
2023/03/09 08:47:09;;;;;;;10.60;9.60;;;5.20;99.90;;;;;;5032728;28;20211;-64
2023/03/09 08:49:37;;;;;;;13.87;10.40;;;5.20;99.90;;;;;;5031856;28;20249;-65
2023/03/09 08:52:03;;;;;;;12.60;9.13;;;5.40;99.90;;;;;;5032257;28;20255;-65
2023/03/09 08:54:29;;;;;;;14.47;10.33;;;5.50;99.90;;;;;;5031856;28;20226;-66
2023/03/09 08:56:54;;;;;;;12.87;10.33;;;5.50;99.90;;;;;;5032586;28;20203;-64
2023/03/09 08:59:20;;;;;;;13.83;11.00;;;5.50;99.90;;;;;;5032276;28;20229;-65
2023/03/09 09:01:45;;;;;;;11.17;9.87;;;5.50;99.90;;;;;;5032253;28;20191;-68
2023/03/09 09:04:11;;;;;;;11.70;10.53;;;5.50;99.90;;;;;;5031812;28;20259;-65
2023/03/09 09:06:37;;;;;;;14.50;10.43;;;5.60;99.90;;;;;;5032131;28;20215;-65
2023/03/09 09:09:02;;;;;;;15.77;11.47;;;5.60;99.90;;;;;;5030714;28;20234;-65
2023/03/09 09:11:28;;;;;;;13.40;10.50;;;5.60;99.90;;;;;;5032030;28;20213;-65
2023/03/09 09:13:54;;;;;;;13.93;11.03;;;5.60;99.90;;;;;;5032030;28;20218;-65
2023/03/09 09:16:20;;;;;;;13.40;10.23;;;5.60;99.90;;;;;;5032342;28;20172;-65
2023/03/09 09:18:46;;;;;;;15.83;10.87;;;5.50;99.90;;;;;;5031733;28;20656;-65
2023/03/09 09:21:14;;;;;;;23.90;12.50;;;5.50;99.90;;;;;;5031850;28;20537;-65
2023/03/09 09:23:41;;;;;;;13.67;11.27;;;5.60;99.90;;;;;;5031829;28;20179;-65
2023/03/09 09:26:08;;;;;;;11.60;9.60;;;5.60;99.90;;;;;;5031859;28;20203;-65
2023/03/09 09:28:34;;;;;;;12.50;11.03;;;5.40;99.90;;;;;;5031534;28;20860;-65
2023/03/09 09:31:03;;;;;;;10.27;9.33;;;5.40;99.90;;;;;;5031550;28;20184;-65
2023/03/09 09:33:31;;;;;;;12.07;9.97;;;5.30;99.90;;;;;;5031573;28;20168;-65
2023/03/09 09:35:58;;;;;;;14.93;10.83;;;5.30;99.90;;;;;;5031821;28;20210;-65
2023/03/09 09:38:25;;;;;;;14.00;10.53;;;5.40;99.90;;;;;;5030200;28;20588;-65
2023/03/09 09:40:53;;;;;;;14.67;10.73;;;5.50;99.90;;;;;;5030884;28;20595;-65
2023/03/09 09:43:21;;;;;;;8.83;7.93;;;5.70;99.90;;;;;;5031441;28;20554;-65
2023/03/09 09:45:48;;;;;;;10.30;8.70;;;5.60;99.90;;;;;;5031548;28;20208;-65
2023/03/09 09:48:17;;;;;;;13.10;10.60;;;5.60;99.90;;;;;;5030415;28;20221;-65
2023/03/09 09:51:20;;;;;;;12.53;11.27;;;5.60;99.90;;;;;;5030439;28;20271;-65
2023/03/09 09:54:17;;;;;;;17.17;11.47;;;5.70;99.90;;;;;;5023787;28;20237;-65
2023/03/09 09:56:52;;;;;;;12.43;11.03;;;6.00;99.90;;;;;;5031462;28;20544;-65
2023/03/09 09:59:45;;;;;;;11.43;9.43;;;6.20;99.90;;;;;;5031182;28;20214;-65
2023/03/09 10:02:39;;;;;;;11.47;9.70;;;6.30;99.90;;;;;;5023074;28;20237;-65
2023/03/09 10:05:25;;;;;;;11.43;9.37;;;6.40;99.90;;;;;;5030262;28;20198;-65
2023/03/09 10:07:51;;;;;;;10.50;8.73;;;6.40;99.90;;;;;;5031264;28;20262;-65
2023/03/09 10:10:24;;;;;;;11.77;9.67;;;6.60;99.90;;;;;;5030674;28;20735;-65
2023/03/09 10:12:50;;;;;;;476.40;449.87;;;6.90;99.90;;;;;;5031550;28;20167;-65
2023/03/09 10:15:30;;;;;;;14.97;12.27;;;7.20;99.90;;;;;;5031291;28;20183;-65
2023/03/09 10:18:02;;;;;;;16.50;10.67;;;7.50;99.90;;;;;;5033504;28;20179;-65
2023/03/09 10:20:34;;;;;;;12.80;11.10;;;7.60;99.90;;;;;;5035080;28;20562;-65
2023/03/09 10:23:11;;;;;;;10.27;9.27;;;7.70;99.90;;;;;;5035363;28;20177;-65
2023/03/09 10:25:37;;;;;;;11.37;10.17;;;7.40;99.90;;;;;;5035292;28;20195;-65
2023/03/09 10:28:17;;;;;;;11.87;10.63;;;7.20;99.90;;;;;;5033803;28;20258;-65
2023/03/09 10:31:00;;;;;;;11.00;10.00;;;7.10;99.90;;;;;;5035161;28;20195;-65
2023/03/09 10:33:44;;;;;;;10.43;9.33;;;7.10;99.90;;;;;;5035006;28;20167;-65
2023/03/09 10:36:21;;;;;;;11.13;10.13;;;7.10;99.90;;;;;;5035190;28;20225;-65
2023/03/09 10:38:48;;;;;;;11.13;10.00;;;7.10;99.90;;;;;;5033174;28;20179;-65
2023/03/09 10:41:16;;;;;;;10.73;9.10;;;7.10;99.90;;;;;;5033534;28;20188;-65
2023/03/09 10:43:42;;;;;;;10.83;9.73;;;7.20;99.90;;;;;;5024898;28;20262;-65
2023/03/09 10:46:23;;;;;;;11.07;9.97;;;7.20;99.90;;;;;;5031108;28;20226;-65
2023/03/09 10:48:52;;;;;;;10.47;9.47;;;7.30;99.90;;;;;;5030454;28;20179;-65
2023/03/09 10:51:23;;;;;;;10.53;9.53;;;7.20;99.90;;;;;;5030182;28;20163;-65
2023/03/09 10:53:49;;;;;;;11.40;10.17;;;7.30;99.90;;;;;;5030690;28;20184;-65
2023/03/09 10:56:22;;;;;;;11.37;10.10;;;7.40;99.90;;;;;;5031347;28;20183;-65
2023/03/09 10:59:15;;;;;;;10.87;9.80;;;7.50;99.90;;;;;;5030371;28;20233;-65
2023/03/09 11:01:44;;;;;;;10.77;9.73;;;7.50;99.90;;;;;;5027787;28;20280;-65
2023/03/09 11:04:21;;;;;;;10.87;9.50;;;7.50;99.90;;;;;;5028810;28;20194;-65
2023/03/09 11:06:58;;;;;;;10.57;9.57;;;7.60;99.90;;;;;;5029540;28;20261;-65
2023/03/09 11:09:33;;;;;;;13.47;9.67;;;7.70;99.90;;;;;;5030699;28;20214;-65
2023/03/09 11:12:27;;;;;;;13.83;8.97;;;7.90;99.90;;;;;;5031626;28;20174;-65
2023/03/09 11:14:59;;;;;;;12.37;8.97;;;7.90;99.90;;;;;;5031177;28;20182;-65
2023/03/09 11:17:34;;;;;;;10.30;9.33;;;7.90;99.90;;;;;;5031034;28;20187;-65
2023/03/09 11:20:12;;;;;;;10.83;9.83;;;8.00;99.90;;;;;;5029234;28;20203;-64
2023/03/09 11:22:42;;;;;;;15.07;10.93;;;8.10;99.90;;;;;;5030801;28;20602;-65
2023/03/09 11:25:17;;;;;;;14.00;9.57;;;8.20;99.90;;;;;;5030904;28;20171;-65
2023/03/09 11:27:49;;;;;;;12.73;9.47;;;8.40;99.90;;;;;;5030647;28;20522;-64
2023/03/09 11:30:18;;;;;;;14.33;10.37;;;8.60;99.90;;;;;;5030502;28;20203;-65
2023/03/09 11:32:43;;;;;;;12.00;9.70;;;8.60;99.90;;;;;;5030518;28;20290;-65
2023/03/09 11:35:14;;;;;;;15.27;10.30;;;8.60;99.90;;;;;;5030755;28;20222;-65
2023/03/09 11:37:49;;;;;;;11.53;10.20;;;8.70;99.90;;;;;;5028574;28;20179;-64
2023/03/09 11:40:16;;;;;;;9.37;8.57;;;8.70;99.90;;;;;;5030414;28;20273;-64
2023/03/09 11:42:58;;;;;;;13.20;10.53;;;8.60;99.90;;;;;;5030347;28;20176;-64
2023/03/09 11:45:30;;;;;;;10.60;9.53;;;8.50;99.90;;;;;;5030663;28;20203;-64
2023/03/09 11:48:17;;;;;;;12.43;10.77;;;8.40;99.90;;;;;;5029177;28;20179;-65
2023/03/09 11:50:58;;;;;;;12.03;10.80;;;8.40;99.90;;;;;;5029910;28;20203;-64
2023/03/09 11:53:40;;;;;;;13.10;11.83;;;8.20;99.90;;;;;;5011020;28;20546;-65
2023/03/09 11:56:09;;;;;;;11.63;10.43;;;8.00;99.90;;;;;;5014201;28;20179;-64
2023/03/09 11:58:38;;;;;;;12.90;10.33;;;7.90;99.90;;;;;;5029943;28;20249;-65
2023/03/09 12:01:23;;;;;;;10.23;9.20;;;7.80;99.90;;;;;;5030484;28;20203;-65
2023/03/09 12:04:03;;;;;;;12.10;10.80;;;7.80;99.90;;;;;;5030738;28;20164;-65
2023/03/09 12:06:48;;;;;;;11.37;10.17;;;7.80;99.90;;;;;;5029650;28;20203;-64
2023/03/09 12:09:45;;;;;;;15.97;11.13;;;7.70;99.90;;;;;;5030122;28;20265;-65
2023/03/09 12:12:26;;;;;;;17.23;11.20;;;7.60;99.90;;;;;;5026229;28;20214;-64
2023/03/09 12:15:04;;;;;;;15.40;12.07;;;7.50;99.90;;;;;;5029655;28;20179;-64
2023/03/09 12:17:36;;;;;;;15.37;11.53;;;7.40;99.90;;;;;;5029747;28;20175;-65
2023/03/09 12:20:03;;;;;;;13.30;11.03;;;7.30;99.90;;;;;;5028391;28;20203;-64
2023/03/09 12:22:31;;;;;;;13.03;11.53;;;7.40;99.90;;;;;;5029154;28;20229;-65
2023/03/09 12:25:00;;;;;;;12.37;11.07;;;7.50;99.90;;;;;;5029332;28;20180;-65
2023/03/09 12:27:28;;;;;;;11.23;10.13;;;7.60;99.90;;;;;;5029374;28;20194;-65
2023/03/09 12:29:59;;;;;;;14.77;11.13;;;7.80;99.90;;;;;;5027851;28;20227;-65
2023/03/09 12:32:25;;;;;;;12.30;10.80;;;7.80;99.90;;;;;;5029487;28;20772;-65
2023/03/09 12:34:53;;;;;;;13.73;11.13;;;7.90;99.90;;;;;;5029686;28;20262;-65
2023/03/09 12:37:31;;;;;;;13.57;10.97;;;8.00;99.90;;;;;;5029993;28;20209;-65
2023/03/09 12:40:17;;;;;;;11.10;9.83;;;8.00;99.90;;;;;;5028288;28;20294;-65
2023/03/09 12:42:45;;;;;;;15.23;11.07;;;8.00;99.90;;;;;;5029686;28;20183;-65
2023/03/09 12:45:11;;;;;;;14.43;10.60;;;8.00;99.90;;;;;;5029652;28;20182;-65